Time;durP1;ratioP1;P1;durP2;ratioP2;P2;SDS_P1;SDS_P2;PMS_P1;PMS_P2;Temp;Humidity;BMP_temperature;BMP_pressure;BME280_temperature;BME280_humidity;BME280_pressure;Samples;Min_cycle;Max_cycle;Signal;HPM_P1;HPM_P2
2021/11/24 00:01:34;;;;;;;;;108.00;80.33;;;;;-3.13;100.00;100617.47;6311327;20;3688820;-46
2021/11/24 00:04:05;;;;;;;;;122.33;101.00;;;;;-3.34;100.00;100618.16;6311522;20;3717265;-51
2021/11/24 00:06:34;;;;;;;;;115.00;89.00;;;;;-3.22;100.00;100617.38;6280821;20;3693960;-47
2021/11/24 00:09:04;;;;;;;;;100.00;69.67;;;;;-2.56;100.00;100619.66;6280510;20;3671246;-46
2021/11/24 00:11:34;;;;;;;;;104.33;80.33;;;;;-3.03;100.00;100617.53;6310069;20;3675229;-50
2021/11/24 00:14:04;;;;;;;;;107.67;83.00;;;;;-3.22;100.00;100614.75;6310928;20;3682570;-47
2021/11/24 00:16:34;;;;;;;;;108.33;80.67;;;;;-3.43;100.00;100618.03;6279246;20;3693056;-48
2021/11/24 00:19:04;;;;;;;;;111.67;85.00;;;;;-3.52;100.00;100607.47;6275986;20;3689801;-48
2021/11/24 00:21:33;;;;;;;;;115.00;87.33;;;;;-3.50;100.00;100611.00;6279046;20;3706470;-47
2021/11/24 00:24:04;;;;;;;;;104.33;77.00;;;;;-2.78;100.00;100608.13;6279479;20;3659653;-46
2021/11/24 00:26:33;;;;;;;;;111.67;86.67;;;;;-2.78;100.00;100614.25;6310307;20;3701482;-46
2021/11/24 00:29:03;;;;;;;;;107.67;78.00;;;;;-3.10;100.00;100611.38;6277789;20;3681491;-48
2021/11/24 00:31:33;;;;;;;;;107.33;80.33;;;;;-3.24;100.00;100618.22;6277986;20;3674202;-46
2021/11/24 00:34:03;;;;;;;;;107.33;77.33;;;;;-3.06;100.00;100612.25;6312863;20;3662713;-45
2021/11/24 00:36:32;;;;;;;;;94.00;69.33;;;;;-2.59;100.00;100614.38;6313160;20;3655477;-51
2021/11/24 00:39:03;;;;;;;;;96.00;70.33;;;;;-2.48;100.00;100612.69;6309061;20;3648379;-46
2021/11/24 00:41:33;;;;;;;;;100.00;70.67;;;;;-2.89;100.00;100610.66;6309996;20;3666035;-45
2021/11/24 00:44:03;;;;;;;;;108.33;78.00;;;;;-3.31;100.00;100609.41;6312070;20;3673118;-45
2021/11/24 00:46:33;;;;;;;;;107.33;79.33;;;;;-3.08;100.00;100609.63;6306964;20;3673144;-47
2021/11/24 00:49:08;;;;;;;;;100.33;70.67;;;;;-2.43;100.00;100606.59;6276011;20;3658604;-46
2021/11/24 00:51:38;;;;;;;;;99.00;73.67;;;;;-2.89;100.00;100608.03;6310968;20;3655453;-47
2021/11/24 00:54:07;;;;;;;;;92.00;69.67;;;;;-3.15;100.00;100603.44;6311867;20;2889983;-49
2021/11/24 00:56:37;;;;;;;;;94.67;73.00;;;;;-3.59;100.00;100611.75;6310862;20;3658705;-46
2021/11/24 00:59:07;;;;;;;;;98.67;71.33;;;;;-3.56;100.00;100608.28;6309225;20;3648696;-48
2021/11/24 01:01:36;;;;;;;;;93.33;70.33;;;;;-3.31;100.00;100601.53;6311086;20;3654426;-46
2021/11/24 01:04:06;;;;;;;;;102.00;76.00;;;;;-3.28;100.00;100603.31;6309757;20;3678366;-47
2021/11/24 01:06:36;;;;;;;;;120.67;87.33;;;;;-3.99;100.00;100599.94;6275508;20;3692919;-46
2021/11/24 01:09:06;;;;;;;;;165.00;130.33;;;;;-4.15;100.00;100608.47;6275538;20;3709607;-46
2021/11/24 01:11:36;;;;;;;;;129.33;106.33;;;;;-3.77;100.00;100606.31;6279057;20;3714801;-46
2021/11/24 01:14:06;;;;;;;;;145.00;115.33;;;;;-3.73;100.00;100609.84;6281726;20;3709616;-48
2021/11/24 01:16:36;;;;;;;;;129.00;109.00;;;;;-2.92;100.00;100601.00;6283487;20;3706519;-47
2021/11/24 01:19:06;;;;;;;;;141.67;118.00;;;;;-3.29;100.00;100609.41;6280366;20;3717934;-48
2021/11/24 01:21:35;;;;;;;;;104.33;81.33;;;;;-3.82;100.00;100601.03;6282683;20;3675200;-48
2021/11/24 01:24:05;;;;;;;;;98.00;75.67;;;;;-3.78;100.00;100600.19;6316292;20;3639815;-47
2021/11/24 01:26:35;;;;;;;;;107.00;83.00;;;;;-3.57;100.00;100604.78;6311461;20;3694194;-46
2021/11/24 01:29:05;;;;;;;;;151.00;128.00;;;;;-3.03;100.00;100607.91;6281504;20;3727344;-46
2021/11/24 01:31:35;;;;;;;;;139.67;123.00;;;;;-3.60;100.00;100606.50;6283691;20;3717946;-46
2021/11/24 01:34:05;;;;;;;;;151.67;120.33;;;;;-3.72;100.00;100608.97;6281729;20;3725300;-46
2021/11/24 01:36:38;;;;;;;;;134.00;109.33;;;;;-3.81;100.00;100601.91;6281256;20;3709779;-44
2021/11/24 01:39:08;;;;;;;;;114.00;95.67;;;;;-4.01;100.00;100612.13;6277036;20;3686689;-46
2021/11/24 01:41:38;;;;;;;;;146.33;122.33;;;;;-3.86;100.00;100596.59;6280102;20;3715874;-49
2021/11/24 01:44:24;;;;;;;;;118.67;93.33;;;;;-3.77;100.00;100606.31;6283193;20;3697671;-51
2021/11/24 01:47:05;;;;;;;;;122.67;101.67;;;;;-3.65;100.00;100605.56;6281563;20;3707523;-48
2021/11/24 01:49:34;;;;;;;;;105.33;78.00;;;;;-3.37;100.00;100596.22;6280371;20;3667951;-51
2021/11/24 01:52:05;;;;;;;;;109.00;86.33;;;;;-3.49;100.00;100585.63;6312172;20;3685713;-47
2021/11/24 01:54:35;;;;;;;;;119.00;98.67;;;;;-3.94;100.00;100593.00;6281464;20;3708670;-50
2021/11/24 01:57:05;;;;;;;;;120.33;97.33;;;;;-3.85;100.00;100597.47;6282342;20;3702425;-48
2021/11/24 01:59:35;;;;;;;;;116.67;98.00;;;;;-3.67;100.00;100596.78;6280622;20;3696107;-51
2021/11/24 02:02:05;;;;;;;;;121.33;103.00;;;;;-4.11;100.00;100591.91;6282208;20;3699178;-51
2021/11/24 02:04:36;;;;;;;;;115.00;95.67;;;;;-4.01;100.00;100591.16;6280244;20;3684583;-47
2021/11/24 02:07:04;;;;;;;;;102.50;80.50;;;;;-4.27;100.00;100599.56;6277890;20;2508676;-45
2021/11/24 02:09:34;;;;;;;;;118.33;88.67;;;;;-4.41;100.00;100590.66;6282076;20;3690993;-47
2021/11/24 02:12:05;;;;;;;;;120.00;102.67;;;;;-3.86;100.00;100586.09;6279674;20;3699172;-48
2021/11/24 02:14:35;;;;;;;;;103.33;82.00;;;;;-3.71;100.00;100576.63;6282754;20;2905555;-48
2021/11/24 02:17:05;;;;;;;;;101.00;81.33;;;;;-4.25;100.00;100576.00;6315482;20;2899279;-47
2021/11/24 02:19:35;;;;;;;;;120.33;93.33;;;;;-4.01;100.00;100570.19;6309862;20;3699205;-47
2021/11/24 02:22:05;;;;;;;;;110.33;86.33;;;;;-3.28;100.00;100575.31;6283040;20;3685689;-45
2021/11/24 02:24:38;;;;;;;;;107.67;85.67;;;;;-3.33;100.00;100582.25;6276969;20;3688753;-50
2021/11/24 02:27:12;;;;;;;;;123.00;99.00;;;;;-4.10;100.00;100580.56;6279813;20;3699196;-46
2021/11/24 02:29:44;;;;;;;;;111.00;84.33;;;;;-4.25;100.00;100579.50;6281939;20;3690871;-49
2021/11/24 02:32:17;;;;;;;;;104.00;82.00;;;;;-4.06;100.00;100567.50;6315358;20;2901281;-49
2021/11/24 02:34:46;;;;;;;;;106.33;74.67;;;;;-4.02;100.00;100569.31;6283156;20;3681457;-48
2021/11/24 02:37:16;;;;;;;;;105.33;78.00;;;;;-4.14;100.00;100577.00;6281116;20;3683653;-49
2021/11/24 02:39:49;;;;;;;;;105.67;81.67;;;;;-4.29;100.00;100579.44;6314163;20;3672123;-50
2021/11/24 02:42:19;;;;;;;;;111.00;86.33;;;;;-4.52;100.00;100574.78;6313676;20;3681586;-51
2021/11/24 02:44:49;;;;;;;;;114.33;90.33;;;;;-4.29;100.00;100580.34;6314948;20;3698186;-53
2021/11/24 02:47:21;;;;;;;;;104.33;76.00;;;;;-3.31;100.00;100578.78;6277936;20;3674209;-50
2021/11/24 02:49:54;;;;;;;;;101.33;75.00;;;;;-4.17;100.00;100589.22;6308662;20;3664938;-50
2021/11/24 02:52:24;;;;;;;;;102.33;76.00;;;;;-4.24;100.00;100593.47;6314965;20;3667952;-49
2021/11/24 02:55:00;;;;;;;;;69.00;48.00;;;;;-3.96;100.00;100586.84;6315431;20;2878631;-47
2021/11/24 02:57:40;;;;;;;;;90.67;66.00;;;;;-4.04;100.00;100572.78;6281403;20;3655644;-45
2021/11/24 03:00:26;;;;;;;;;88.00;66.00;;;;;-4.59;100.00;100585.16;6313199;20;2906840;-51
2021/11/24 03:02:56;;;;;;;;;91.00;71.33;;;;;-4.12;100.00;100577.03;6312823;20;2884674;-47
2021/11/24 03:05:29;;;;;;;;;92.00;67.67;;;;;-4.00;100.00;100582.44;6313128;20;3653445;-48
2021/11/24 03:08:00;;;;;;;;;91.67;67.67;;;;;-4.68;100.00;100583.28;6308943;20;3645043;-47
2021/11/24 03:10:32;;;;;;;;;90.33;68.33;;;;;-4.81;100.00;100582.22;6311564;20;2898300;-46
2021/11/24 03:13:04;;;;;;;;;96.33;70.33;;;;;-4.34;100.00;100586.38;6310443;20;3669061;-49
2021/11/24 03:15:34;;;;;;;;;86.00;64.00;;;;;-3.82;100.00;100584.38;6310516;20;2886146;-46
2021/11/24 03:18:04;;;;;;;;;117.00;100.33;;;;;-4.38;100.00;100588.06;6280347;20;3701251;-46
2021/11/24 03:20:32;;;;;;;;;83.50;66.00;;;;;-4.45;100.00;100588.84;6276180;20;2500398;-47
2021/11/24 03:23:01;;;;;;;;;73.00;57.00;;;;;-4.42;100.00;100583.66;6282179;20;2877348;-49
2021/11/24 03:25:29;;;;;;;;;78.00;60.00;;;;;-4.61;100.00;100586.88;6277467;20;2500281;-51
2021/11/24 03:27:57;;;;;;;;;84.50;59.00;;;;;-4.99;100.00;100589.78;6276349;20;2500272;-51
2021/11/24 03:30:29;;;;;;;;;75.50;58.50;;;;;-4.48;100.00;100583.56;6278575;20;2868094;-49
2021/11/24 03:33:00;;;;;;;;;69.50;53.00;;;;;-4.38;100.00;100588.06;6279354;20;2870056;-47
2021/11/24 03:35:33;;;;;;;;;73.33;54.00;;;;;-4.64;100.00;100579.84;6281047;20;2889959;-46
2021/11/24 03:38:02;;;;;;;;;52.50;47.00;;;;;-4.86;100.00;100582.16;6307239;20;2508652;-49
2021/11/24 03:40:34;;;;;;;;;72.50;53.00;;;;;-4.22;100.00;100582.16;6280015;20;2878409;-47
2021/11/24 03:43:03;;;;;;;;;61.50;50.50;;;;;-3.95;100.00;100572.00;6278017;20;2500272;-49
2021/11/24 03:45:36;;;;;;;;;78.50;60.00;;;;;-4.31;100.00;100571.56;6278152;20;2499246;-50
2021/11/24 03:48:08;;;;;;;;;126.33;94.00;;;;;-4.18;100.00;100571.75;6278514;20;3698166;-46
2021/11/24 03:50:39;;;;;;;;;145.67;103.67;;;;;-4.44;100.00;100578.38;6292074;20;3705420;-48
2021/11/24 03:53:09;;;;;;;;;132.00;98.33;;;;;-4.91;100.00;100577.69;6279059;20;3691886;-45
2021/11/24 03:55:39;;;;;;;;;103.67;76.67;;;;;-4.25;100.00;100582.13;6278538;20;3676237;-48
2021/11/24 03:58:09;;;;;;;;;88.67;64.67;;;;;-3.82;100.00;100572.16;6313861;20;2898270;-47
2021/11/24 04:00:39;;;;;;;;;81.50;63.00;;;;;-3.90;100.00;100567.69;6310012;20;2877342;-49
2021/11/24 04:03:07;;;;;;;;;79.00;61.00;;;;;-3.65;100.00;100568.84;6308404;20;2500394;-46
2021/11/24 04:05:37;;;;;;;;;94.00;64.67;;;;;-4.21;100.00;100567.34;6281382;20;3656547;-47
2021/11/24 04:08:06;;;;;;;;;77.00;58.00;;;;;-4.42;100.00;100573.19;6311396;20;2886829;-49
2021/11/24 04:10:36;;;;;;;;;83.00;60.33;;;;;-4.31;100.00;100582.06;6280298;20;2897180;-48
2021/11/24 04:13:04;;;;;;;;;68.00;56.00;;;;;-4.35;100.00;100577.63;6309398;20;2499290;-51
2021/11/24 04:15:32;;;;;;;;;72.50;55.00;;;;;-3.72;100.00;100572.25;6278786;20;2867986;-49
2021/11/24 04:18:01;;;;;;;;;81.00;60.00;;;;;-4.03;100.00;100574.53;6273748;20;2500282;-46
2021/11/24 04:20:29;;;;;;;;;81.50;59.50;;;;;-4.03;100.00;100578.03;6277446;20;2500407;-50
2021/11/24 04:22:57;;;;;;;;;73.50;57.50;;;;;-3.76;100.00;100572.22;6276659;20;2508567;-48
2021/11/24 04:25:25;;;;;;;;;73.00;57.00;;;;;-3.54;100.00;100577.69;6278816;20;2500267;-51
2021/11/24 04:27:56;;;;;;;;;77.50;59.00;;;;;-3.72;100.00;100582.75;6279560;20;2871070;-46
2021/11/24 04:30:25;;;;;;;;;83.00;60.00;;;;;-4.04;100.00;100576.28;6278180;20;2892147;-49
2021/11/24 04:32:55;;;;;;;;;67.00;51.67;;;;;-3.77;100.00;100580.06;6310930;20;2880475;-51
2021/11/24 04:35:24;;;;;;;;;73.50;54.00;;;;;-4.12;100.00;100584.91;6311063;20;2875332;-47
2021/11/24 04:37:52;;;;;;;;;83.00;62.00;;;;;-4.20;100.00;100579.56;6271552;20;2487853;-47
2021/11/24 04:40:21;;;;;;;;;65.50;50.50;;;;;-3.90;100.00;100581.66;6279400;20;2861731;-47
2021/11/24 04:42:52;;;;;;;;;71.00;53.50;;;;;-4.18;100.00;100584.84;6278662;20;2870047;-49
2021/11/24 04:45:20;;;;;;;;;65.50;56.00;;;;;-4.10;100.00;100584.06;6275369;20;2508635;-49
2021/11/24 04:47:49;;;;;;;;;76.00;54.50;;;;;-4.20;100.00;100585.69;6281165;20;2876448;-48
2021/11/24 04:50:18;;;;;;;;;76.50;56.50;;;;;-4.28;100.00;100581.22;6281476;20;2500394;-49
2021/11/24 04:52:48;;;;;;;;;89.00;64.00;;;;;-4.17;100.00;100579.59;6284749;20;3659628;-47
2021/11/24 04:55:16;;;;;;;;;78.00;62.00;;;;;-3.68;100.00;100579.31;6313338;20;2492948;-50
2021/11/24 04:57:49;;;;;;;;;98.33;75.00;;;;;-3.62;100.00;100581.97;6283495;20;2896285;-47
2021/11/24 05:00:23;;;;;;;;;161.67;126.67;;;;;-3.57;100.00;100585.53;6315195;20;3720023;-51
2021/11/24 05:02:53;;;;;;;;;110.67;90.33;;;;;-3.87;100.00;100579.09;6281327;20;3684658;-49
2021/11/24 05:05:27;;;;;;;;;108.67;75.67;;;;;-3.87;100.00;100589.59;6315746;20;3684634;-52
2021/11/24 05:07:57;;;;;;;;;77.00;63.00;;;;;-3.76;100.00;100593.22;6277223;20;2500243;-50
2021/11/24 05:10:29;;;;;;;;;92.17;67.67;;;;;-3.86;100.00;100587.84;6281908;20;3653396;-50
2021/11/24 05:12:59;;;;;;;;;93.33;71.00;;;;;-4.16;100.00;100589.25;6313810;20;3655449;-49
2021/11/24 05:15:32;;;;;;;;;94.00;69.00;;;;;-4.26;100.00;100585.63;6313234;20;2765913;-46
2021/11/24 05:18:03;;;;;;;;;88.00;65.50;;;;;-4.78;100.00;100595.38;6309703;20;2500413;-47
2021/11/24 05:20:34;;;;;;;;;93.00;66.00;;;;;-5.13;100.00;100579.97;6284029;20;3663883;-46
2021/11/24 05:23:05;;;;;;;;;82.50;62.00;;;;;-5.03;100.00;100585.34;6310709;20;2500345;-50
2021/11/24 05:25:34;;;;;;;;;79.00;55.00;;;;;-4.32;100.00;100589.88;6284706;20;3624216;-48
2021/11/24 05:28:04;;;;;;;;;78.00;56.00;;;;;-4.98;100.00;100589.81;6313533;20;2870214;-49
2021/11/24 05:30:32;;;;;;;;;72.50;55.00;;;;;-5.37;100.00;100590.03;6279852;20;2498290;-49
2021/11/24 05:33:00;;;;;;;;;84.33;58.00;;;;;-4.42;100.00;100584.53;6279345;20;2890984;-47
2021/11/24 05:35:30;;;;;;;;;101.67;72.00;;;;;-4.02;100.00;100585.03;6313822;20;3656604;-49
2021/11/24 05:38:00;;;;;;;;;105.33;72.00;;;;;-4.87;100.00;100589.97;6314641;20;3680425;-49
2021/11/24 05:40:30;;;;;;;;;104.67;73.00;;;;;-5.04;100.00;100588.84;6282416;20;3679370;-47
2021/11/24 05:42:59;;;;;;;;;93.33;68.33;;;;;-4.83;100.00;100591.78;6315953;20;3657503;-48
2021/11/24 05:48:03;;;;;;;;;105.00;74.33;;;;;-5.21;100.00;100601.63;6315192;20;3689820;-46
2021/11/24 05:50:51;;;;;;;;;90.00;68.33;;;;;-5.47;100.00;100601.22;6313324;20;2894068;-48
2021/11/24 05:53:20;;;;;;;;;77.00;59.50;;;;;-5.25;100.00;100598.09;6313148;20;2500375;-47
2021/11/24 05:55:51;;;;;;;;;94.00;67.67;;;;;-4.93;100.00;100595.13;6281981;20;2904497;-47
2021/11/24 05:58:21;;;;;;;;;75.50;59.00;;;;;-5.42;100.00;100595.19;6314302;20;2871466;-48
2021/11/24 06:00:49;;;;;;;;;69.50;57.00;;;;;-4.63;100.00;100616.56;6279573;20;2496078;-48
2021/11/24 06:03:17;;;;;;;;;71.00;58.50;;;;;-4.99;100.00;100605.50;6282923;20;2868117;-48
2021/11/24 06:05:47;;;;;;;;;78.00;58.00;;;;;-4.46;100.00;100610.66;6282827;20;2886720;-47
2021/11/24 06:08:17;;;;;;;;;78.50;60.00;;;;;-4.41;100.00;100616.88;6315650;20;2881521;-46
2021/11/24 06:10:47;;;;;;;;;81.50;57.00;;;;;-4.65;100.00;100612.16;6283702;20;2890911;-51
2021/11/24 06:13:16;;;;;;;;;78.00;64.00;;;;;-4.82;100.00;100616.25;6284187;20;2879411;-48
2021/11/24 06:15:46;;;;;;;;;92.33;66.67;;;;;-4.83;100.00;100623.22;6283450;20;3656466;-49
2021/11/24 06:18:15;;;;;;;;;74.67;46.00;;;;;-4.25;100.00;100618.81;6314004;20;3586693;-49
2021/11/24 06:20:44;;;;;;;;;92.00;69.00;;;;;-4.47;100.00;100617.66;6312780;20;2885741;-50
2021/11/24 06:23:12;;;;;;;;;74.00;49.00;;;;;-4.86;100.00;100624.06;6280878;20;2894029;-51
2021/11/24 06:25:40;;;;;;;;;88.67;63.67;;;;;-4.48;100.00;100621.13;6279426;20;2892994;-47
2021/11/24 06:28:12;;;;;;;;;104.00;75.00;;;;;-4.11;100.00;100631.25;6311958;20;3674245;-49
2021/11/24 06:30:42;;;;;;;;;98.67;69.00;;;;;-4.35;100.00;100644.91;6313149;20;3669023;-49
2021/11/24 06:33:12;;;;;;;;;100.67;73.67;;;;;-4.44;100.00;100643.91;6314305;20;3688883;-47
2021/11/24 06:35:41;;;;;;;;;97.00;75.50;;;;;-3.89;100.00;100633.28;6314927;20;2877391;-50
2021/11/24 06:38:11;;;;;;;;;111.67;79.67;;;;;-4.03;100.00;100634.84;6282933;20;3684659;-47
2021/11/24 06:40:41;;;;;;;;;116.67;84.00;;;;;-3.29;100.00;100636.59;6282587;20;3696073;-48
2021/11/24 06:43:10;;;;;;;;;112.67;94.33;;;;;-3.38;100.00;100639.09;6279957;20;3680442;-48
2021/11/24 06:45:44;;;;;;;;;128.67;95.67;;;;;-3.94;100.00;100642.84;6313155;20;3712727;-50
2021/11/24 06:48:14;;;;;;;;;117.67;84.00;;;;;-3.42;100.00;100635.56;6282943;20;3685763;-51
2021/11/24 06:50:44;;;;;;;;;106.67;78.33;;;;;-3.61;100.00;100633.59;6280154;20;3686720;-50
2021/11/24 06:53:12;;;;;;;;;68.50;54.00;;;;;-4.20;100.00;100638.13;6279774;20;2500299;-48
2021/11/24 06:55:41;;;;;;;;;81.33;58.67;;;;;-4.20;100.00;100639.88;6280780;20;2887792;-46
2021/11/24 06:58:12;;;;;;;;;73.50;52.50;;;;;-4.02;100.00;100647.09;6314325;20;2885773;-50
2021/11/24 07:00:40;;;;;;;;;79.00;59.00;;;;;-4.28;100.00;100647.63;6279324;20;2499224;-52
2021/11/24 07:03:09;;;;;;;;;88.33;65.33;;;;;-3.24;100.00;100640.09;6281489;20;2900301;-51
2021/11/24 07:05:39;;;;;;;;;100.33;75.00;;;;;-3.12;99.88;100644.59;6314522;20;3662731;-48
2021/11/24 07:08:09;;;;;;;;;98.33;69.33;;;;;-3.30;100.00;100647.94;6312566;20;3667992;-47
2021/11/24 07:10:39;;;;;;;;;107.33;76.00;;;;;-3.02;100.00;100646.47;6313157;20;3659728;-47
2021/11/24 07:13:09;;;;;;;;;119.00;91.33;;;;;-2.39;100.00;100638.19;6312938;20;3707586;-49
2021/11/24 07:15:38;;;;;;;;;117.00;99.67;;;;;-2.73;100.00;100644.06;6282727;20;3687751;-49
2021/11/24 07:18:09;;;;;;;;;110.67;85.00;;;;;-2.73;100.00;100644.06;6280997;20;3701256;-45
2021/11/24 07:20:38;;;;;;;;;95.00;70.00;;;;;-2.65;100.00;100641.50;6283381;20;3655438;-47
2021/11/24 07:23:06;;;;;;;;;72.00;56.00;;;;;-2.07;98.84;100647.13;6310171;20;2500237;-52
2021/11/24 07:25:36;;;;;;;;;91.33;68.33;;;;;-2.19;97.97;100647.06;6282115;20;3667423;-47
2021/11/24 07:28:07;;;;;;;;;88.67;65.33;;;;;-2.01;97.77;100641.00;6311054;20;3645138;-48
2021/11/24 07:30:36;;;;;;;;;102.00;72.67;;;;;-2.17;98.46;100642.69;6312200;20;3663755;-47
2021/11/24 07:33:06;;;;;;;;;100.33;84.00;;;;;-1.54;97.54;100642.97;6312114;20;3668967;-47
2021/11/24 07:35:36;;;;;;;;;98.00;73.00;;;;;-1.47;97.89;100643.88;6311756;20;3651344;-47
2021/11/24 07:38:06;;;;;;;;;86.00;64.00;;;;;-1.18;97.27;100639.53;6313209;20;3651319;-46
2021/11/24 07:40:34;;;;;;;;;85.00;64.00;;;;;-1.34;98.12;100648.31;6308281;20;2500363;-47
2021/11/24 07:43:03;;;;;;;;;80.50;64.00;;;;;-1.16;97.69;100645.69;6279617;20;2869026;-48
2021/11/24 07:45:33;;;;;;;;;86.33;65.33;;;;;-0.79;96.05;100653.63;6283800;20;3648186;-50
2021/11/24 07:48:04;;;;;;;;;87.00;66.67;;;;;-0.82;95.47;100643.06;6312477;20;3629534;-49
2021/11/24 07:50:33;;;;;;;;;74.00;59.67;;;;;-1.33;98.00;100650.03;6310084;20;3596125;-49
2021/11/24 07:53:02;;;;;;;;;84.00;57.67;;;;;-0.67;95.84;100645.72;6282037;20;3661730;-48
2021/11/24 07:55:32;;;;;;;;;75.67;60.67;;;;;-0.56;95.40;100643.06;6311690;20;2859679;-48
2021/11/24 07:58:02;;;;;;;;;74.33;56.67;;;;;-0.40;94.56;100649.19;6313449;20;2885792;-48
2021/11/24 08:00:34;;;;;;;;;76.00;59.50;;;;;-0.41;94.44;100651.84;6309565;20;2880462;-48
2021/11/24 08:03:04;;;;;;;;;78.33;53.33;;;;;-0.34;95.12;100649.22;6282419;20;2888823;-49
2021/11/24 08:05:34;;;;;;;;;82.67;62.67;;;;;-0.46;95.59;100649.22;6312442;20;2887968;-47
2021/11/24 08:08:04;;;;;;;;;109.00;94.67;;;;;-0.72;97.00;100652.75;6313237;20;3671082;-49
2021/11/24 08:10:34;;;;;;;;;103.33;78.67;;;;;-0.33;96.31;100660.63;6311388;20;3676297;-47
2021/11/24 08:13:03;;;;;;;;;88.00;65.67;;;;;0.03;95.20;100648.22;6278996;20;3651338;-48
2021/11/24 08:15:37;;;;;;;;;79.67;59.00;;;;;0.08;93.61;100651.72;6312717;20;3646193;-50
2021/11/24 08:18:06;;;;;;;;;81.00;60.00;;;;;0.24;93.32;100653.44;6310836;20;2876363;-49
2021/11/24 08:20:36;;;;;;;;;123.00;108.33;;;;;-0.42;97.73;100656.25;6312681;20;3711701;-47
2021/11/24 08:23:05;;;;;;;;;72.00;55.00;;;;;0.17;95.61;100657.88;6281314;20;2881608;-48
2021/11/24 08:25:36;;;;;;;;;81.00;65.67;;;;;-0.01;95.29;100653.50;6286609;20;3614847;-51
2021/11/24 08:28:05;;;;;;;;;83.67;63.00;;;;;0.28;95.17;100649.91;6314939;20;3651263;-51
2021/11/24 08:30:35;;;;;;;;;90.00;65.67;;;;;0.21;95.28;100664.00;6317220;20;3669054;-51
2021/11/24 08:33:05;;;;;;;;;91.00;67.00;;;;;0.53;95.53;100645.41;6314781;20;3656467;-52
2021/11/24 08:35:35;;;;;;;;;82.00;62.67;;;;;0.83;93.83;100654.03;6318606;20;2885921;-50
2021/11/24 08:38:05;;;;;;;;;88.33;65.00;;;;;0.68;93.84;100654.09;6316472;20;3646080;-49
2021/11/24 08:40:33;;;;;;;;;109.50;89.00;;;;;0.62;95.04;100644.47;6314495;20;1952461;-48
2021/11/24 08:43:03;;;;;;;;;94.00;70.00;;;;;0.76;93.48;100645.25;6282908;20;3650270;-51
2021/11/24 08:45:35;;;;;;;;;81.33;63.33;;;;;1.09;92.52;100653.84;6316443;20;3634617;-51
2021/11/24 08:48:05;;;;;;;;;81.00;63.33;;;;;0.70;94.96;100645.28;6316945;20;2878444;-48
2021/11/24 08:50:35;;;;;;;;;78.00;66.00;;;;;0.68;95.79;100654.09;6313076;20;2875457;-49
2021/11/24 08:53:05;;;;;;;;;88.33;65.00;;;;;0.54;96.04;100646.25;6284994;20;3655465;-50
2021/11/24 08:55:35;;;;;;;;;96.00;73.67;;;;;0.88;95.76;100649.59;6282389;20;3652336;-49
2021/11/24 08:58:05;;;;;;;;;94.00;72.33;;;;;1.29;93.27;100640.44;6317321;20;3641964;-48
2021/11/24 09:00:34;;;;;;;;;83.00;64.33;;;;;1.57;96.95;100645.53;6316755;20;3644024;-49
2021/11/24 09:03:05;;;;;;;;;86.67;64.00;;;;;1.51;96.08;100639.38;6317850;20;3666889;-51
2021/11/24 09:05:33;;;;;;;;;74.50;58.00;;;;;1.09;94.63;100636.22;6279547;20;2500302;-47
2021/11/24 09:08:04;;;;;;;;;80.00;59.00;;;;;1.85;91.82;100638.19;6285355;20;3641925;-48
2021/11/24 09:10:35;;;;;;;;;81.33;59.67;;;;;2.06;91.51;100642.38;6316236;20;3644008;-49
2021/11/24 09:13:05;;;;;;;;;79.00;57.67;;;;;2.04;90.74;100654.75;6317230;20;2886810;-47
2021/11/24 09:15:35;;;;;;;;;85.67;62.33;;;;;2.20;90.66;100641.28;6316264;20;3666921;-50
2021/11/24 09:18:16;;;;;;;;;76.33;58.67;;;;;2.27;92.48;100636.81;6315396;20;2876512;-47
2021/11/24 09:20:46;;;;;;;;;66.00;46.33;;;;;2.35;90.57;100639.38;6316105;20;2882577;-51
2021/11/24 09:23:18;;;;;;;;;76.00;59.67;;;;;2.39;89.99;100641.94;6314600;20;2877521;-51
2021/11/24 09:25:50;;;;;;;;;75.50;57.50;;;;;2.33;88.35;100642.03;6317005;20;2877508;-47
2021/11/24 09:28:29;;;;;;;;;73.50;56.50;;;;;2.72;87.97;100638.88;6282233;20;2881491;-48
2021/11/24 09:30:58;;;;;;;;;64.00;53.00;;;;;2.32;86.63;100632.34;6285865;20;2856527;-48
2021/11/24 09:33:28;;;;;;;;;66.67;52.67;;;;;2.34;87.62;100632.28;6284929;20;2871207;-47
2021/11/24 09:35:58;;;;;;;;;69.33;53.33;;;;;2.25;86.96;100629.78;6314864;20;2858586;-47
2021/11/24 09:38:27;;;;;;;;;66.50;53.00;;;;;2.61;86.36;100631.09;6314625;20;2873220;-47
2021/11/24 09:41:07;;;;;;;;;77.67;56.33;;;;;2.41;86.40;100626.91;6283824;20;3637749;-47
2021/11/24 09:43:48;;;;;;;;;70.67;53.33;;;;;2.63;84.87;100629.25;6316853;20;3626356;-48
2021/11/24 09:46:19;;;;;;;;;70.33;54.67;;;;;2.48;87.96;100624.19;6315112;20;2859670;-47
2021/11/24 09:48:51;;;;;;;;;70.67;55.67;;;;;3.04;88.62;100619.81;6313581;20;2869058;-51
2021/11/24 09:51:20;;;;;;;;;68.50;53.50;;;;;2.80;85.69;100621.94;6313580;20;2873259;-47
2021/11/24 09:53:50;;;;;;;;;75.67;55.00;;;;;3.09;84.74;100617.97;6280679;20;3646040;-47
2021/11/24 09:56:19;;;;;;;;;75.33;59.33;;;;;3.03;84.51;100612.78;6316422;20;2873269;-46
2021/11/24 09:59:03;;;;;;;;;72.67;57.33;;;;;3.37;84.88;100610.44;6314120;20;3632624;-50
2021/11/24 10:01:33;;;;;;;;;79.33;57.67;;;;;3.55;85.76;100608.34;6314068;20;3647123;-47
2021/11/24 10:04:05;;;;;;;;;79.33;61.67;;;;;3.66;84.23;100609.94;6313088;20;2883633;-47
2021/11/24 10:06:40;;;;;;;;;80.33;59.33;;;;;3.42;84.10;100608.59;6317018;20;3640885;-49
2021/11/24 10:09:12;;;;;;;;;73.33;54.67;;;;;3.32;84.02;100599.03;6314075;20;2880670;-52
2021/11/24 10:11:42;;;;;;;;;77.67;59.00;;;;;3.30;82.99;100609.66;6312684;20;3633538;-52
2021/11/24 10:14:11;;;;;;;;;70.67;54.67;;;;;3.39;82.11;100603.31;6315813;20;2849803;-53
2021/11/24 10:16:41;;;;;;;;;64.00;52.00;;;;;3.71;81.34;100607.16;6311627;20;2881629;-52
2021/11/24 10:19:15;;;;;;;;;58.50;45.50;;;;;3.54;80.08;100604.81;6314070;20;2851415;-49
2021/11/24 10:22:14;;;;;;;;;64.00;47.33;;;;;3.97;80.15;100601.34;6282968;20;2862732;-50
2021/11/24 10:24:44;;;;;;;;;52.67;42.67;;;;;3.70;79.30;100598.31;6310703;20;2862824;-47
2021/11/24 10:27:48;;;;;;;;;72.33;53.67;;;;;3.91;78.92;100585.53;6315132;20;3635664;-46
2021/11/24 10:30:29;;;;;;;;;64.00;49.33;;;;;4.07;79.67;100594.06;6314793;20;3629415;-50
2021/11/24 10:33:19;;;;;;;;;60.50;48.00;;;;;4.46;78.11;100591.50;6313214;20;2863819;-48
2021/11/24 10:36:09;;;;;;;;;43.67;37.00;;;;;4.34;77.14;100592.63;6284728;20;3593968;-47
2021/11/24 10:38:51;;;;;;;;;78.33;61.00;;;;;4.55;80.17;100584.16;6314658;20;2873290;-50
2021/11/24 10:41:39;;;;;;;;;61.00;49.00;;;;;4.62;77.23;100588.44;6314499;20;2855540;-47
2021/11/24 10:44:31;;;;;;;;;63.00;50.33;;;;;4.37;77.15;100582.81;6314272;20;2870183;-48
2021/11/24 10:47:03;;;;;;;;;70.67;50.00;;;;;4.68;77.06;100582.09;6312111;20;3644123;-50
2021/11/24 10:49:53;;;;;;;;;64.00;49.33;;;;;4.66;76.70;100575.06;6313789;20;2874349;-48
2021/11/24 10:52:37;;;;;;;;;58.50;45.00;;;;;4.97;76.11;100570.78;6310899;20;2853392;-52
2021/11/24 10:55:26;;;;;;;;;78.00;54.67;;;;;5.00;76.00;100568.06;6283386;20;3651301;-48
2021/11/24 10:58:16;;;;;;;;;60.50;49.00;;;;;4.61;77.06;100564.56;6315135;20;2844062;-49
2021/11/24 11:00:56;;;;;;;;;59.50;48.50;;;;;4.72;76.58;100567.84;6280798;20;2855481;-48
2021/11/24 11:03:43;;;;;;;;;73.00;56.33;;;;;4.60;76.79;100561.00;6281489;20;2880501;-50
2021/11/24 11:06:30;;;;;;;;;63.33;48.00;;;;;4.74;76.38;100554.47;6314837;20;3628484;-49
2021/11/24 11:09:00;;;;;;;;;81.33;62.67;;;;;5.00;76.64;100554.75;6309976;20;3632527;-46